sensor_id;sensor_type;location;lat;lon;timestamp;P1;durP1;ratioP1;P2;durP2;ratioP2
40931;SDS011;36257;46.052;12.540;2023-08-12T00:01:10;3.70;;;2.30;;
40931;SDS011;36257;46.052;12.540;2023-08-12T00:03:35;3.05;;;2.45;;
40931;SDS011;36257;46.052;12.540;2023-08-12T00:06:01;7.40;;;3.38;;
40931;SDS011;36257;46.052;12.540;2023-08-12T00:08:30;2.92;;;2.70;;
40931;SDS011;36257;46.052;12.540;2023-08-12T00:10:56;3.28;;;2.90;;
40931;SDS011;36257;46.052;12.540;2023-08-12T00:13:22;2.70;;;2.47;;
40931;SDS011;36257;46.052;12.540;2023-08-12T00:15:47;3.35;;;2.95;;
40931;SDS011;36257;46.052;12.540;2023-08-12T00:18:13;4.43;;;3.00;;
40931;SDS011;36257;46.052;12.540;2023-08-12T00:20:39;4.43;;;2.78;;
40931;SDS011;36257;46.052;12.540;2023-08-12T00:23:05;3.30;;;2.40;;
40931;SDS011;36257;46.052;12.540;2023-08-12T00:25:30;7.10;;;3.08;;
40931;SDS011;36257;46.052;12.540;2023-08-12T00:27:56;2.63;;;2.42;;
40931;SDS011;36257;46.052;12.540;2023-08-12T00:30:22;5.45;;;2.45;;
40931;SDS011;36257;46.052;12.540;2023-08-12T00:32:47;2.70;;;2.40;;
40931;SDS011;36257;46.052;12.540;2023-08-12T00:35:13;3.65;;;2.55;;
40931;SDS011;36257;46.052;12.540;2023-08-12T00:37:38;3.30;;;2.78;;
40931;SDS011;36257;46.052;12.540;2023-08-12T00:40:04;5.13;;;3.28;;
40931;SDS011;36257;46.052;12.540;2023-08-12T00:42:31;4.82;;;2.97;;
40931;SDS011;36257;46.052;12.540;2023-08-12T00:44:57;3.83;;;3.13;;
40931;SDS011;36257;46.052;12.540;2023-08-12T00:47:23;3.38;;;3.08;;
40931;SDS011;36257;46.052;12.540;2023-08-12T00:49:49;2.88;;;2.67;;
40931;SDS011;36257;46.052;12.540;2023-08-12T00:52:15;4.17;;;3.03;;
40931;SDS011;36257;46.052;12.540;2023-08-12T00:54:42;4.43;;;3.00;;
40931;SDS011;36257;46.052;12.540;2023-08-12T00:57:08;4.75;;;2.78;;
40931;SDS011;36257;46.052;12.540;2023-08-12T00:59:37;5.30;;;2.88;;
40931;SDS011;36257;46.052;12.540;2023-08-12T01:02:04;5.25;;;2.90;;
40931;SDS011;36257;46.052;12.540;2023-08-12T01:04:30;4.60;;;3.10;;
40931;SDS011;36257;46.052;12.540;2023-08-12T01:06:56;3.47;;;2.97;;
40931;SDS011;36257;46.052;12.540;2023-08-12T01:09:21;3.10;;;2.78;;
40931;SDS011;36257;46.052;12.540;2023-08-12T01:11:54;3.13;;;2.83;;
40931;SDS011;36257;46.052;12.540;2023-08-12T01:14:33;5.53;;;3.20;;
40931;SDS011;36257;46.052;12.540;2023-08-12T01:17:08;3.38;;;2.67;;
40931;SDS011;36257;46.052;12.540;2023-08-12T01:19:38;3.30;;;3.00;;
40931;SDS011;36257;46.052;12.540;2023-08-12T01:22:06;4.57;;;2.47;;
40931;SDS011;36257;46.052;12.540;2023-08-12T01:24:35;3.85;;;3.00;;
40931;SDS011;36257;46.052;12.540;2023-08-12T01:27:08;4.68;;;2.83;;
40931;SDS011;36257;46.052;12.540;2023-08-12T01:29:38;3.40;;;2.88;;
40931;SDS011;36257;46.052;12.540;2023-08-12T01:37:50;3.10;;;2.80;;
40931;SDS011;36257;46.052;12.540;2023-08-12T01:42:44;3.30;;;3.00;;
40931;SDS011;36257;46.052;12.540;2023-08-12T01:45:10;3.47;;;2.83;;
40931;SDS011;36257;46.052;12.540;2023-08-12T01:47:36;3.10;;;2.80;;
40931;SDS011;36257;46.052;12.540;2023-08-12T01:50:02;4.18;;;3.20;;
40931;SDS011;36257;46.052;12.540;2023-08-12T01:52:28;3.83;;;3.40;;
40931;SDS011;36257;46.052;12.540;2023-08-12T01:54:54;7.45;;;3.28;;
40931;SDS011;36257;46.052;12.540;2023-08-12T01:57:20;7.50;;;3.00;;
40931;SDS011;36257;46.052;12.540;2023-08-12T01:59:45;3.15;;;2.85;;
40931;SDS011;36257;46.052;12.540;2023-08-12T02:02:11;3.22;;;2.95;;
40931;SDS011;36257;46.052;12.540;2023-08-12T02:04:37;3.17;;;2.97;;
40931;SDS011;36257;46.052;12.540;2023-08-12T02:07:04;3.83;;;2.70;;
40931;SDS011;36257;46.052;12.540;2023-08-12T02:09:30;7.82;;;3.58;;
40931;SDS011;36257;46.052;12.540;2023-08-12T02:11:55;3.33;;;2.97;;
40931;SDS011;36257;46.052;12.540;2023-08-12T02:14:21;3.85;;;2.90;;
40931;SDS011;36257;46.052;12.540;2023-08-12T02:16:47;4.45;;;3.55;;
40931;SDS011;36257;46.052;12.540;2023-08-12T02:19:13;5.28;;;3.10;;
40931;SDS011;36257;46.052;12.540;2023-08-12T02:21:38;3.70;;;2.95;;
40931;SDS011;36257;46.052;12.540;2023-08-12T02:24:04;3.45;;;3.15;;
40931;SDS011;36257;46.052;12.540;2023-08-12T02:26:30;3.72;;;3.08;;
40931;SDS011;36257;46.052;12.540;2023-08-12T02:28:56;3.30;;;3.00;;
40931;SDS011;36257;46.052;12.540;2023-08-12T02:31:22;3.50;;;3.20;;
40931;SDS011;36257;46.052;12.540;2023-08-12T02:33:47;3.47;;;3.17;;
40931;SDS011;36257;46.052;12.540;2023-08-12T02:36:14;4.78;;;3.40;;
40931;SDS011;36257;46.052;12.540;2023-08-12T02:38:40;3.40;;;3.05;;
40931;SDS011;36257;46.052;12.540;2023-08-12T02:41:06;3.40;;;3.10;;
40931;SDS011;36257;46.052;12.540;2023-08-12T02:43:31;5.57;;;3.20;;
40931;SDS011;36257;46.052;12.540;2023-08-12T02:45:57;4.28;;;3.35;;
40931;SDS011;36257;46.052;12.540;2023-08-12T02:48:22;4.35;;;3.03;;
40931;SDS011;36257;46.052;12.540;2023-08-12T02:50:48;3.42;;;3.03;;
40931;SDS011;36257;46.052;12.540;2023-08-12T02:53:14;5.35;;;3.05;;
40931;SDS011;36257;46.052;12.540;2023-08-12T02:55:40;3.38;;;3.05;;
40931;SDS011;36257;46.052;12.540;2023-08-12T02:58:06;3.70;;;3.10;;
40931;SDS011;36257;46.052;12.540;2023-08-12T03:00:32;4.85;;;3.38;;
40931;SDS011;36257;46.052;12.540;2023-08-12T03:02:57;5.72;;;3.10;;
40931;SDS011;36257;46.052;12.540;2023-08-12T03:05:23;5.85;;;3.58;;
40931;SDS011;36257;46.052;12.540;2023-08-12T03:07:49;3.35;;;2.75;;
40931;SDS011;36257;46.052;12.540;2023-08-12T03:10:16;4.13;;;3.20;;
40931;SDS011;36257;46.052;12.540;2023-08-12T03:12:42;3.10;;;2.80;;
40931;SDS011;36257;46.052;12.540;2023-08-12T03:15:08;4.63;;;3.30;;
40931;SDS011;36257;46.052;12.540;2023-08-12T03:17:34;3.05;;;2.85;;
40931;SDS011;36257;46.052;12.540;2023-08-12T03:20:00;4.13;;;3.10;;
40931;SDS011;36257;46.052;12.540;2023-08-12T03:22:27;3.60;;;3.30;;
40931;SDS011;36257;46.052;12.540;2023-08-12T03:24:53;3.28;;;2.97;;
40931;SDS011;36257;46.052;12.540;2023-08-12T03:27:18;7.35;;;2.95;;
40931;SDS011;36257;46.052;12.540;2023-08-12T03:29:44;3.33;;;2.95;;
40931;SDS011;36257;46.052;12.540;2023-08-12T03:32:10;3.55;;;3.25;;
40931;SDS011;36257;46.052;12.540;2023-08-12T03:34:35;3.60;;;2.58;;
40931;SDS011;36257;46.052;12.540;2023-08-12T03:37:01;5.57;;;3.45;;
40931;SDS011;36257;46.052;12.540;2023-08-12T03:39:27;5.65;;;3.85;;
40931;SDS011;36257;46.052;12.540;2023-08-12T03:41:52;3.72;;;3.22;;
40931;SDS011;36257;46.052;12.540;2023-08-12T03:44:18;3.17;;;2.97;;
40931;SDS011;36257;46.052;12.540;2023-08-12T03:46:44;3.38;;;3.08;;
40931;SDS011;36257;46.052;12.540;2023-08-12T03:49:10;3.53;;;3.20;;
40931;SDS011;36257;46.052;12.540;2023-08-12T03:51:35;3.50;;;3.20;;
40931;SDS011;36257;46.052;12.540;2023-08-12T03:54:01;5.72;;;3.03;;
40931;SDS011;36257;46.052;12.540;2023-08-12T03:56:28;3.83;;;3.45;;
40931;SDS011;36257;46.052;12.540;2023-08-12T03:58:54;3.88;;;3.50;;
40931;SDS011;36257;46.052;12.540;2023-08-12T04:01:20;4.55;;;3.38;;
40931;SDS011;36257;46.052;12.540;2023-08-12T04:03:46;4.30;;;3.53;;
40931;SDS011;36257;46.052;12.540;2023-08-12T04:06:12;4.00;;;3.22;;
40931;SDS011;36257;46.052;12.540;2023-08-12T04:08:37;3.85;;;3.30;;
40931;SDS011;36257;46.052;12.540;2023-08-12T04:11:03;4.43;;;3.65;;
40931;SDS011;36257;46.052;12.540;2023-08-12T04:13:29;6.10;;;3.78;;
40931;SDS011;36257;46.052;12.540;2023-08-12T04:15:55;4.68;;;3.50;;
40931;SDS011;36257;46.052;12.540;2023-08-12T04:18:20;5.55;;;4.13;;
40931;SDS011;36257;46.052;12.540;2023-08-12T04:20:48;3.55;;;3.30;;
40931;SDS011;36257;46.052;12.540;2023-08-12T04:23:14;3.55;;;3.13;;
40931;SDS011;36257;46.052;12.540;2023-08-12T04:25:42;4.07;;;3.42;;
40931;SDS011;36257;46.052;12.540;2023-08-12T04:28:10;3.75;;;3.45;;
40931;SDS011;36257;46.052;12.540;2023-08-12T04:30:39;3.42;;;3.05;;
40931;SDS011;36257;46.052;12.540;2023-08-12T04:33:09;3.45;;;3.15;;
40931;SDS011;36257;46.052;12.540;2023-08-12T04:35:35;3.53;;;3.22;;
40931;SDS011;36257;46.052;12.540;2023-08-12T04:38:01;3.78;;;3.47;;
40931;SDS011;36257;46.052;12.540;2023-08-12T04:40:27;5.85;;;3.38;;
40931;SDS011;36257;46.052;12.540;2023-08-12T04:42:53;4.93;;;3.97;;
40931;SDS011;36257;46.052;12.540;2023-08-12T04:45:19;3.67;;;3.38;;
40931;SDS011;36257;46.052;12.540;2023-08-12T04:47:44;4.47;;;3.70;;
40931;SDS011;36257;46.052;12.540;2023-08-12T04:50:10;6.25;;;3.38;;
40931;SDS011;36257;46.052;12.540;2023-08-12T04:52:36;3.45;;;3.15;;
40931;SDS011;36257;46.052;12.540;2023-08-12T04:55:02;3.80;;;3.13;;
40931;SDS011;36257;46.052;12.540;2023-08-12T04:57:28;3.58;;;3.20;;
40931;SDS011;36257;46.052;12.540;2023-08-12T04:59:54;6.57;;;3.60;;
40931;SDS011;36257;46.052;12.540;2023-08-12T05:02:20;3.38;;;3.08;;
40931;SDS011;36257;46.052;12.540;2023-08-12T05:04:49;3.67;;;3.03;;
40931;SDS011;36257;46.052;12.540;2023-08-12T05:07:15;3.70;;;3.13;;
40931;SDS011;36257;46.052;12.540;2023-08-12T05:09:41;3.20;;;3.00;;
40931;SDS011;36257;46.052;12.540;2023-08-12T05:12:10;4.28;;;3.08;;
40931;SDS011;36257;46.052;12.540;2023-08-12T05:14:37;4.65;;;3.25;;
40931;SDS011;36257;46.052;12.540;2023-08-12T05:17:03;3.80;;;3.17;;
40931;SDS011;36257;46.052;12.540;2023-08-12T05:19:28;3.65;;;3.30;;
40931;SDS011;36257;46.052;12.540;2023-08-12T05:21:54;4.30;;;3.90;;
40931;SDS011;36257;46.052;12.540;2023-08-12T05:24:20;3.28;;;2.97;;
40931;SDS011;36257;46.052;12.540;2023-08-12T05:26:46;3.38;;;3.05;;
40931;SDS011;36257;46.052;12.540;2023-08-12T05:29:12;3.58;;;3.28;;
40931;SDS011;36257;46.052;12.540;2023-08-12T05:31:37;3.47;;;3.17;;
40931;SDS011;36257;46.052;12.540;2023-08-12T05:34:03;3.15;;;2.85;;
40931;SDS011;36257;46.052;12.540;2023-08-12T05:36:29;6.18;;;3.42;;
40931;SDS011;36257;46.052;12.540;2023-08-12T05:38:54;4.95;;;3.75;;
40931;SDS011;36257;46.052;12.540;2023-08-12T05:41:20;4.32;;;3.00;;
40931;SDS011;36257;46.052;12.540;2023-08-12T05:43:47;5.35;;;4.38;;
40931;SDS011;36257;46.052;12.540;2023-08-12T05:46:13;3.92;;;3.60;;
40931;SDS011;36257;46.052;12.540;2023-08-12T05:48:39;4.60;;;4.10;;
40931;SDS011;36257;46.052;12.540;2023-08-12T05:51:05;4.28;;;3.13;;
40931;SDS011;36257;46.052;12.540;2023-08-12T05:53:30;5.05;;;3.30;;
40931;SDS011;36257;46.052;12.540;2023-08-12T05:58:33;3.50;;;3.20;;
40931;SDS011;36257;46.052;12.540;2023-08-12T06:03:34;3.90;;;3.42;;
40931;SDS011;36257;46.052;12.540;2023-08-12T06:06:00;5.07;;;2.85;;
40931;SDS011;36257;46.052;12.540;2023-08-12T06:23:56;3.65;;;2.90;;
40931;SDS011;36257;46.052;12.540;2023-08-12T06:28:58;4.63;;;3.50;;
40931;SDS011;36257;46.052;12.540;2023-08-12T06:31:24;3.70;;;2.92;;
40931;SDS011;36257;46.052;12.540;2023-08-12T06:33:50;3.85;;;3.42;;
40931;SDS011;36257;46.052;12.540;2023-08-12T06:41:26;4.72;;;2.95;;
40931;SDS011;36257;46.052;12.540;2023-08-12T06:43:52;4.78;;;2.78;;
40931;SDS011;36257;46.052;12.540;2023-08-12T06:46:18;3.92;;;3.30;;
40931;SDS011;36257;46.052;12.540;2023-08-12T07:04:22;3.17;;;2.85;;
40931;SDS011;36257;46.052;12.540;2023-08-12T07:06:48;3.88;;;2.88;;
40931;SDS011;36257;46.052;12.540;2023-08-12T07:09:59;3.85;;;2.90;;
40931;SDS011;36257;46.052;12.540;2023-08-12T07:12:34;4.28;;;3.17;;
40931;SDS011;36257;46.052;12.540;2023-08-12T07:15:05;4.53;;;2.70;;
40931;SDS011;36257;46.052;12.540;2023-08-12T07:17:32;4.70;;;2.78;;
40931;SDS011;36257;46.052;12.540;2023-08-12T07:19:57;4.38;;;3.03;;
40931;SDS011;36257;46.052;12.540;2023-08-12T07:22:27;3.55;;;3.25;;
40931;SDS011;36257;46.052;12.540;2023-08-12T07:24:58;4.65;;;3.03;;
40931;SDS011;36257;46.052;12.540;2023-08-12T07:27:33;3.55;;;2.50;;
40931;SDS011;36257;46.052;12.540;2023-08-12T07:30:19;3.78;;;3.45;;
40931;SDS011;36257;46.052;12.540;2023-08-12T07:32:49;4.25;;;3.35;;
40931;SDS011;36257;46.052;12.540;2023-08-12T07:35:19;6.70;;;2.55;;
40931;SDS011;36257;46.052;12.540;2023-08-12T07:37:51;4.30;;;3.00;;
40931;SDS011;36257;46.052;12.540;2023-08-12T07:43:20;4.10;;;3.20;;
40931;SDS011;36257;46.052;12.540;2023-08-12T07:45:53;4.22;;;3.20;;
40931;SDS011;36257;46.052;12.540;2023-08-12T08:05:01;3.55;;;2.42;;
40931;SDS011;36257;46.052;12.540;2023-08-12T08:07:27;3.58;;;3.00;;
40931;SDS011;36257;46.052;12.540;2023-08-12T09:44:17;2.95;;;2.65;;
40931;SDS011;36257;46.052;12.540;2023-08-12T09:46:43;3.45;;;3.10;;
40931;SDS011;36257;46.052;12.540;2023-08-12T09:49:09;3.10;;;2.75;;
40931;SDS011;36257;46.052;12.540;2023-08-12T09:51:35;2.72;;;2.17;;
40931;SDS011;36257;46.052;12.540;2023-08-12T09:54:02;3.42;;;2.90;;
40931;SDS011;36257;46.052;12.540;2023-08-12T09:56:28;2.70;;;2.50;;
40931;SDS011;36257;46.052;12.540;2023-08-12T09:58:58;3.55;;;3.10;;
40931;SDS011;36257;46.052;12.540;2023-08-12T10:03:52;3.15;;;2.08;;
40931;SDS011;36257;46.052;12.540;2023-08-12T10:06:19;3.58;;;2.60;;
40931;SDS011;36257;46.052;12.540;2023-08-12T10:08:46;2.20;;;2.00;;
40931;SDS011;36257;46.052;12.540;2023-08-12T11:28:51;2.53;;;2.00;;
40931;SDS011;36257;46.052;12.540;2023-08-12T11:31:18;3.65;;;2.50;;
40931;SDS011;36257;46.052;12.540;2023-08-12T11:33:44;3.40;;;1.98;;
40931;SDS011;36257;46.052;12.540;2023-08-12T11:55:26;2.72;;;2.47;;
40931;SDS011;36257;46.052;12.540;2023-08-12T11:57:53;2.55;;;2.35;;
40931;SDS011;36257;46.052;12.540;2023-08-12T12:00:18;3.67;;;2.63;;
40931;SDS011;36257;46.052;12.540;2023-08-12T12:02:51;2.93;;;2.10;;
40931;SDS011;36257;46.052;12.540;2023-08-12T12:05:20;4.43;;;2.22;;
40931;SDS011;36257;46.052;12.540;2023-08-12T12:07:48;5.03;;;2.22;;
40931;SDS011;36257;46.052;12.540;2023-08-12T12:10:21;3.80;;;2.42;;
40931;SDS011;36257;46.052;12.540;2023-08-12T12:12:57;3.33;;;2.13;;
40931;SDS011;36257;46.052;12.540;2023-08-12T12:17:50;3.47;;;2.60;;
40931;SDS011;36257;46.052;12.540;2023-08-12T12:20:16;5.03;;;3.00;;
40931;SDS011;36257;46.052;12.540;2023-08-12T12:22:42;3.75;;;2.83;;
40931;SDS011;36257;46.052;12.540;2023-08-12T12:33:05;2.53;;;2.33;;
40931;SDS011;36257;46.052;12.540;2023-08-12T12:35:31;3.47;;;2.33;;
40931;SDS011;36257;46.052;12.540;2023-08-12T12:37:56;3.22;;;2.55;;
40931;SDS011;36257;46.052;12.540;2023-08-12T12:40:22;2.80;;;2.33;;
40931;SDS011;36257;46.052;12.540;2023-08-12T12:42:47;2.90;;;2.50;;
40931;SDS011;36257;46.052;12.540;2023-08-12T12:45:13;2.67;;;2.47;;
40931;SDS011;36257;46.052;12.540;2023-08-12T12:47:39;5.40;;;2.50;;
40931;SDS011;36257;46.052;12.540;2023-08-12T12:50:05;2.60;;;2.40;;
40931;SDS011;36257;46.052;12.540;2023-08-12T12:52:32;3.42;;;2.78;;
40931;SDS011;36257;46.052;12.540;2023-08-12T12:54:57;3.25;;;2.00;;
40931;SDS011;36257;46.052;12.540;2023-08-12T12:57:24;3.28;;;2.50;;
40931;SDS011;36257;46.052;12.540;2023-08-12T12:59:49;2.85;;;2.55;;
40931;SDS011;36257;46.052;12.540;2023-08-12T13:02:15;3.47;;;2.45;;
40931;SDS011;36257;46.052;12.540;2023-08-12T13:04:41;3.53;;;2.70;;
40931;SDS011;36257;46.052;12.540;2023-08-12T13:07:07;2.55;;;2.35;;
40931;SDS011;36257;46.052;12.540;2023-08-12T13:09:33;3.30;;;2.75;;
40931;SDS011;36257;46.052;12.540;2023-08-12T13:11:58;2.47;;;2.28;;
40931;SDS011;36257;46.052;12.540;2023-08-12T13:29:56;3.08;;;2.78;;
40931;SDS011;36257;46.052;12.540;2023-08-12T13:32:22;2.85;;;2.40;;
40931;SDS011;36257;46.052;12.540;2023-08-12T13:34:48;3.95;;;2.72;;
40931;SDS011;36257;46.052;12.540;2023-08-12T13:37:13;3.17;;;2.67;;
40931;SDS011;36257;46.052;12.540;2023-08-12T13:39:39;2.85;;;2.60;;
40931;SDS011;36257;46.052;12.540;2023-08-12T13:42:05;3.28;;;2.42;;
40931;SDS011;36257;46.052;12.540;2023-08-12T13:44:31;5.45;;;2.65;;
40931;SDS011;36257;46.052;12.540;2023-08-12T13:46:56;2.70;;;2.13;;
40931;SDS011;36257;46.052;12.540;2023-08-12T13:49:22;3.30;;;2.55;;
40931;SDS011;36257;46.052;12.540;2023-08-12T13:51:48;3.80;;;3.03;;
40931;SDS011;36257;46.052;12.540;2023-08-12T13:54:13;3.17;;;2.88;;
40931;SDS011;36257;46.052;12.540;2023-08-12T13:56:39;4.35;;;3.03;;
40931;SDS011;36257;46.052;12.540;2023-08-12T13:59:05;3.85;;;2.50;;
40931;SDS011;36257;46.052;12.540;2023-08-12T14:01:30;2.92;;;2.15;;
40931;SDS011;36257;46.052;12.540;2023-08-12T14:03:56;4.18;;;2.30;;
40931;SDS011;36257;46.052;12.540;2023-08-12T14:06:21;3.10;;;2.22;;
40931;SDS011;36257;46.052;12.540;2023-08-12T14:08:47;2.70;;;2.50;;
40931;SDS011;36257;46.052;12.540;2023-08-12T14:11:13;3.13;;;2.10;;
40931;SDS011;36257;46.052;12.540;2023-08-12T14:13:38;3.30;;;2.97;;
40931;SDS011;36257;46.052;12.540;2023-08-12T14:16:04;3.38;;;2.45;;
40931;SDS011;36257;46.052;12.540;2023-08-12T14:18:30;4.18;;;3.08;;
40931;SDS011;36257;46.052;12.540;2023-08-12T14:20:55;3.33;;;2.78;;
40931;SDS011;36257;46.052;12.540;2023-08-12T14:23:21;6.75;;;2.95;;
40931;SDS011;36257;46.052;12.540;2023-08-12T14:25:48;3.72;;;2.60;;
40931;SDS011;36257;46.052;12.540;2023-08-12T14:28:14;5.25;;;2.75;;
40931;SDS011;36257;46.052;12.540;2023-08-12T14:30:39;9.95;;;3.50;;
40931;SDS011;36257;46.052;12.540;2023-08-12T14:35:40;5.47;;;3.25;;
40931;SDS011;36257;46.052;12.540;2023-08-12T14:40:55;4.65;;;2.40;;
40931;SDS011;36257;46.052;12.540;2023-08-12T14:43:20;3.17;;;2.63;;
40931;SDS011;36257;46.052;12.540;2023-08-12T14:50:52;3.70;;;2.90;;
40931;SDS011;36257;46.052;12.540;2023-08-12T14:53:17;4.55;;;3.05;;
40931;SDS011;36257;46.052;12.540;2023-08-12T14:55:43;3.83;;;2.90;;
40931;SDS011;36257;46.052;12.540;2023-08-12T14:58:08;5.68;;;4.75;;
40931;SDS011;36257;46.052;12.540;2023-08-12T15:00:34;3.30;;;2.83;;
40931;SDS011;36257;46.052;12.540;2023-08-12T15:03:00;5.95;;;3.30;;
40931;SDS011;36257;46.052;12.540;2023-08-12T15:05:28;7.82;;;6.13;;
40931;SDS011;36257;46.052;12.540;2023-08-12T15:07:53;8.55;;;6.47;;
40931;SDS011;36257;46.052;12.540;2023-08-12T15:10:19;10.48;;;7.68;;
40931;SDS011;36257;46.052;12.540;2023-08-12T15:12:45;29.83;;;17.83;;
40931;SDS011;36257;46.052;12.540;2023-08-12T15:15:10;27.25;;;15.23;;
40931;SDS011;36257;46.052;12.540;2023-08-12T17:51:37;5.45;;;4.25;;
40931;SDS011;36257;46.052;12.540;2023-08-12T17:54:03;5.63;;;5.03;;
40931;SDS011;36257;46.052;12.540;2023-08-12T17:56:29;5.18;;;4.15;;
40931;SDS011;36257;46.052;12.540;2023-08-12T17:58:54;5.43;;;4.22;;
40931;SDS011;36257;46.052;12.540;2023-08-12T18:01:20;4.70;;;4.30;;
40931;SDS011;36257;46.052;12.540;2023-08-12T18:03:46;4.38;;;3.97;;
40931;SDS011;36257;46.052;12.540;2023-08-12T18:06:11;4.40;;;4.00;;
40931;SDS011;36257;46.052;12.540;2023-08-12T18:08:37;5.72;;;4.45;;
40931;SDS011;36257;46.052;12.540;2023-08-12T18:11:03;5.18;;;3.88;;
40931;SDS011;36257;46.052;12.540;2023-08-12T18:13:28;4.63;;;4.22;;
40931;SDS011;36257;46.052;12.540;2023-08-12T18:15:54;6.05;;;4.25;;
40931;SDS011;36257;46.052;12.540;2023-08-12T18:18:20;4.70;;;4.30;;
40931;SDS011;36257;46.052;12.540;2023-08-12T18:20:45;4.50;;;4.10;;
40931;SDS011;36257;46.052;12.540;2023-08-12T18:23:11;4.82;;;4.32;;
40931;SDS011;36257;46.052;12.540;2023-08-12T18:25:37;5.28;;;4.78;;
40931;SDS011;36257;46.052;12.540;2023-08-12T18:28:03;5.85;;;4.68;;
40931;SDS011;36257;46.052;12.540;2023-08-12T18:30:29;6.43;;;4.30;;
40931;SDS011;36257;46.052;12.540;2023-08-12T18:32:55;4.72;;;4.03;;
40931;SDS011;36257;46.052;12.540;2023-08-12T18:35:21;4.50;;;4.10;;
40931;SDS011;36257;46.052;12.540;2023-08-12T18:37:47;4.47;;;4.07;;
40931;SDS011;36257;46.052;12.540;2023-08-12T18:40:12;4.40;;;4.00;;
40931;SDS011;36257;46.052;12.540;2023-08-12T18:42:38;4.82;;;4.25;;
40931;SDS011;36257;46.052;12.540;2023-08-12T18:45:04;4.72;;;4.32;;
40931;SDS011;36257;46.052;12.540;2023-08-12T18:47:30;5.40;;;4.00;;
40931;SDS011;36257;46.052;12.540;2023-08-12T18:49:56;4.90;;;4.50;;
40931;SDS011;36257;46.052;12.540;2023-08-12T18:52:21;6.32;;;4.65;;
40931;SDS011;36257;46.052;12.540;2023-08-12T18:54:47;4.60;;;4.20;;
40931;SDS011;36257;46.052;12.540;2023-08-12T18:57:13;7.05;;;4.60;;
40931;SDS011;36257;46.052;12.540;2023-08-12T18:59:39;5.03;;;4.55;;
40931;SDS011;36257;46.052;12.540;2023-08-12T19:02:05;6.32;;;4.50;;
40931;SDS011;36257;46.052;12.540;2023-08-12T19:04:32;4.68;;;4.28;;
40931;SDS011;36257;46.052;12.540;2023-08-12T19:06:57;5.10;;;4.57;;
40931;SDS011;36257;46.052;12.540;2023-08-12T19:09:24;5.10;;;4.53;;
40931;SDS011;36257;46.052;12.540;2023-08-12T19:11:50;4.63;;;4.25;;
40931;SDS011;36257;46.052;12.540;2023-08-12T19:14:16;5.10;;;4.60;;
40931;SDS011;36257;46.052;12.540;2023-08-12T19:16:42;5.55;;;4.72;;
40931;SDS011;36257;46.052;12.540;2023-08-12T19:19:08;6.40;;;4.55;;
40931;SDS011;36257;46.052;12.540;2023-08-12T19:21:35;4.85;;;4.35;;
40931;SDS011;36257;46.052;12.540;2023-08-12T19:24:01;4.63;;;4.32;;
40931;SDS011;36257;46.052;12.540;2023-08-12T19:26:27;4.97;;;4.57;;
40931;SDS011;36257;46.052;12.540;2023-08-12T19:28:52;5.18;;;4.50;;
40931;SDS011;36257;46.052;12.540;2023-08-12T19:31:18;4.65;;;4.25;;
40931;SDS011;36257;46.052;12.540;2023-08-12T19:33:44;7.30;;;5.22;;
40931;SDS011;36257;46.052;12.540;2023-08-12T19:36:09;4.72;;;4.32;;
40931;SDS011;36257;46.052;12.540;2023-08-12T19:38:35;4.85;;;4.40;;
40931;SDS011;36257;46.052;12.540;2023-08-12T19:41:01;5.18;;;4.20;;
40931;SDS011;36257;46.052;12.540;2023-08-12T19:43:28;6.90;;;4.63;;
40931;SDS011;36257;46.052;12.540;2023-08-12T19:45:55;6.50;;;4.75;;
40931;SDS011;36257;46.052;12.540;2023-08-12T19:48:21;4.72;;;4.22;;
40931;SDS011;36257;46.052;12.540;2023-08-12T19:50:46;4.85;;;4.45;;
40931;SDS011;36257;46.052;12.540;2023-08-12T19:53:14;4.97;;;4.47;;
40931;SDS011;36257;46.052;12.540;2023-08-12T19:55:40;5.47;;;4.65;;
40931;SDS011;36257;46.052;12.540;2023-08-12T19:58:06;5.03;;;3.95;;
40931;SDS011;36257;46.052;12.540;2023-08-12T20:00:32;4.03;;;3.70;;
40931;SDS011;36257;46.052;12.540;2023-08-12T20:02:57;6.28;;;4.15;;
40931;SDS011;36257;46.052;12.540;2023-08-12T20:05:23;4.82;;;4.38;;
40931;SDS011;36257;46.052;12.540;2023-08-12T20:10:17;4.45;;;4.05;;
40931;SDS011;36257;46.052;12.540;2023-08-12T20:12:44;5.38;;;4.80;;
40931;SDS011;36257;46.052;12.540;2023-08-12T20:15:10;4.38;;;4.05;;
40931;SDS011;36257;46.052;12.540;2023-08-12T20:17:36;4.38;;;3.97;;
40931;SDS011;36257;46.052;12.540;2023-08-12T20:20:02;4.55;;;4.10;;
40931;SDS011;36257;46.052;12.540;2023-08-12T20:22:32;4.43;;;4.03;;
40931;SDS011;36257;46.052;12.540;2023-08-12T20:24:58;4.88;;;4.47;;
40931;SDS011;36257;46.052;12.540;2023-08-12T20:27:23;4.57;;;4.18;;
40931;SDS011;36257;46.052;12.540;2023-08-12T20:29:49;8.10;;;4.53;;
40931;SDS011;36257;46.052;12.540;2023-08-12T20:32:14;4.93;;;4.38;;
40931;SDS011;36257;46.052;12.540;2023-08-12T20:34:41;4.32;;;3.92;;
40931;SDS011;36257;46.052;12.540;2023-08-12T20:37:07;4.75;;;4.35;;
40931;SDS011;36257;46.052;12.540;2023-08-12T20:39:33;5.70;;;4.35;;
40931;SDS011;36257;46.052;12.540;2023-08-12T20:42:00;5.32;;;3.83;;
40931;SDS011;36257;46.052;12.540;2023-08-12T20:44:26;4.47;;;4.07;;
40931;SDS011;36257;46.052;12.540;2023-08-12T20:46:52;4.57;;;4.18;;
40931;SDS011;36257;46.052;12.540;2023-08-12T20:49:17;5.15;;;4.10;;
40931;SDS011;36257;46.052;12.540;2023-08-12T20:51:43;4.00;;;3.60;;
40931;SDS011;36257;46.052;12.540;2023-08-12T20:54:09;4.50;;;4.10;;
40931;SDS011;36257;46.052;12.540;2023-08-12T20:56:35;7.15;;;3.95;;
40931;SDS011;36257;46.052;12.540;2023-08-12T20:59:01;4.93;;;3.67;;
40931;SDS011;36257;46.052;12.540;2023-08-12T21:01:26;5.38;;;3.45;;
40931;SDS011;36257;46.052;12.540;2023-08-12T21:03:52;4.35;;;4.05;;
40931;SDS011;36257;46.052;12.540;2023-08-12T21:06:17;4.18;;;3.63;;
40931;SDS011;36257;46.052;12.540;2023-08-12T21:08:43;5.05;;;4.55;;
40931;SDS011;36257;46.052;12.540;2023-08-12T21:11:12;3.55;;;3.25;;
40931;SDS011;36257;46.052;12.540;2023-08-12T21:13:38;4.03;;;3.72;;
40931;SDS011;36257;46.052;12.540;2023-08-12T21:16:03;4.05;;;3.70;;
40931;SDS011;36257;46.052;12.540;2023-08-12T21:18:29;3.95;;;3.65;;
40931;SDS011;36257;46.052;12.540;2023-08-12T21:20:54;3.50;;;3.20;;
40931;SDS011;36257;46.052;12.540;2023-08-12T21:23:20;3.63;;;3.33;;
40931;SDS011;36257;46.052;12.540;2023-08-12T21:25:46;4.50;;;3.55;;
40931;SDS011;36257;46.052;12.540;2023-08-12T21:28:12;3.78;;;3.30;;
40931;SDS011;36257;46.052;12.540;2023-08-12T21:30:38;4.57;;;3.25;;
40931;SDS011;36257;46.052;12.540;2023-08-12T21:33:03;3.67;;;3.33;;
40931;SDS011;36257;46.052;12.540;2023-08-12T21:35:29;3.97;;;3.65;;
40931;SDS011;36257;46.052;12.540;2023-08-12T21:37:55;4.57;;;3.78;;
40931;SDS011;36257;46.052;12.540;2023-08-12T21:40:21;3.95;;;3.63;;
40931;SDS011;36257;46.052;12.540;2023-08-12T21:42:48;3.60;;;3.30;;
40931;SDS011;36257;46.052;12.540;2023-08-12T21:45:14;3.53;;;3.22;;
40931;SDS011;36257;46.052;12.540;2023-08-12T21:47:40;3.15;;;2.92;;
40931;SDS011;36257;46.052;12.540;2023-08-12T21:50:06;3.58;;;3.20;;
40931;SDS011;36257;46.052;12.540;2023-08-12T21:52:32;5.10;;;3.28;;
40931;SDS011;36257;46.052;12.540;2023-08-12T21:54:57;3.10;;;2.80;;
40931;SDS011;36257;46.052;12.540;2023-08-12T21:57:23;5.75;;;2.80;;
40931;SDS011;36257;46.052;12.540;2023-08-12T21:59:49;5.55;;;2.95;;
40931;SDS011;36257;46.052;12.540;2023-08-12T22:02:24;3.30;;;3.00;;
40931;SDS011;36257;46.052;12.540;2023-08-12T22:04:50;5.13;;;3.28;;
40931;SDS011;36257;46.052;12.540;2023-08-12T22:07:16;3.97;;;3.35;;